Flight Track Log - Related Links

Times and Time Zones

All times are in EDT time to prevent confusion due to time zone crossing. See the SKW5500 flight status page for this flight to view local times or setup timezone preferences in your user account.

Time Position Orientation Groundspeed Altitude Reporting Facility
EDT Latitude Longitude Course Direction KTS MPH feet Rate Location/Type
Wed 06:14:05 PM 39.8167 -104.7167 270° West 241 277 7,600  Level Denver TRACON
Wed 06:15:05 PM 39.8000 -104.8167 258° West 284 327 9,600 2,269 Climbing Denver TRACON
Wed 06:16:00 PM 39.7629 -105.2002 259° West  Level FlightAware Approximate
Wed 06:16:04 PM 39.7900 -104.9119 262° West 305 351 12,100  Level Denver Center
Wed 06:17:00 PM 39.7496 -105.3350 255° West  Level FlightAware Approximate
Wed 06:17:06 PM 39.7750 -105.0367 261° West 321 369 14,000  Level Denver Center
Wed 06:18:00 PM 39.7215 -105.4666 255° West  Level FlightAware Approximate
Wed 06:18:08 PM 39.7603 -105.1542 261° West 329 379 16,200  Level Denver Center
Wed 06:19:00 PM 39.7000 -105.5993 270° West  Level FlightAware Approximate
Wed 06:19:22 PM 39.7458 -105.2789 261° West 326 375 18,600  Level Denver Center
Wed 06:20:24 PM 39.7278 -105.4242 261° West 335 386 19,700 1,210 Climbing Denver Center
Wed 06:21:26 PM 39.7117 -105.5581 261° West 375 432 21,100 1,113 Climbing Denver Center
Wed 06:22:28 PM 39.6958 -105.6983 262° West 393 452 22,000 435 Climbing Denver Center
Wed 06:23:30 PM 39.6736 -105.8542 260° West 424 488 22,000 -339 Level Denver Center
Wed 06:24:32 PM 39.6492 -106.0158 259° West 451 519 21,300 -1,403 Descending Denver Center
Wed 06:25:34 PM 39.6258 -106.1706 259° West 435 501 19,100 -2,081 Descending Denver Center
Wed 06:26:36 PM 39.6042 -106.3175 259° West 416 479 17,000 -1,561 Descending Denver Center
Wed 06:27:37 PM 39.5822 -106.4522 258° West 385 443 15,900 -537 Descending Denver Center
Wed 06:28:39 PM 39.5636 -106.5728 259° West 312 359 15,900  Level Denver Center
Wed 06:29:41 PM 39.5461 -106.6819 258° West 281 323 15,900 -774 Level Denver Center
Wed 06:30:43 PM 39.5289 -106.7761 257° West 274 315 14,300 -968 Descending Denver Center
Wed 06:31:45 PM 39.5150 -106.8567 257° West 228 262 13,900 -194 Descending Denver Center
Wed 06:32:47 PM 39.4986 -106.9342 255° West 220 253 13,900 -145 Level Denver Center
Wed 06:33:49 PM 39.4533 -106.9739 214° Southwest 202 232 13,600 -581 Descending Denver Center
Wed 06:34:51 PM 39.4006 -106.9550 165° South 186 214 12,700 -871 Descending Denver Center

Login

Don't have an account? Register now (free) for customized features, flight alerts, and more!